Time;durP1;ratioP1;P1;durP2;ratioP2;P2;SDS_P1;SDS_P2;PMS_P1;PMS_P2;Temp;Humidity;BMP_temperature;BMP_pressure;BME280_temperature;BME280_humidity;BME280_pressure;Samples;Min_cycle;Max_cycle;Signal;HPM_P1;HPM_P2
2021/12/27 00:00:08;;;;;;;27.88;17.52;;;;;;;2.13;96.74;100232.31;5048594;28;20493;-88
2021/12/27 00:02:37;;;;;;;37.97;17.98;;;;;;;2.15;97.27;100235.78;5052042;28;20060;-87
2021/12/27 00:05:03;;;;;;;25.85;16.08;;;;;;;2.12;97.13;100231.41;5051929;28;20029;-88
2021/12/27 00:07:29;;;;;;;26.88;17.00;;;;;;;2.14;97.31;100223.59;5053378;28;20296;-88
2021/12/27 00:09:55;;;;;;;27.33;17.50;;;;;;;2.13;97.47;100224.47;5051797;28;20377;-87
2021/12/27 00:12:20;;;;;;;29.10;16.95;;;;;;;2.12;97.40;100227.94;5053169;28;20033;-86
2021/12/27 00:14:46;;;;;;;29.63;18.38;;;;;;;2.15;97.47;100227.94;5042792;28;20056;-87
2021/12/27 00:17:11;;;;;;;26.65;16.67;;;;;;;2.15;97.80;100222.72;5033125;28;20448;-87
2021/12/27 00:19:37;;;;;;;32.20;18.52;;;;;;;2.16;98.12;100229.69;5015039;28;20385;-87
2021/12/27 00:22:03;;;;;;;26.42;17.08;;;;;;;2.18;98.11;100224.47;4999043;28;20045;-87
2021/12/27 00:24:29;;;;;;;29.13;16.77;;;;;;;2.18;98.14;100221.84;5031362;28;20418;-87
2021/12/27 00:26:55;;;;;;;24.88;16.48;;;;;;;2.19;97.67;100221.88;5015261;28;20048;-88
2021/12/27 00:29:21;;;;;;;35.45;18.75;;;;;;;2.21;97.92;100216.66;5031625;28;20032;-88
2021/12/27 00:31:47;;;;;;;24.88;16.38;;;;;;;2.21;97.71;100214.03;5014833;28;20037;-88
2021/12/27 00:34:13;;;;;;;25.08;17.33;;;;;;;2.23;97.78;100210.56;5031732;28;20048;-88
2021/12/27 00:36:39;;;;;;;29.55;18.70;;;;;;;2.23;98.30;100210.56;5032675;28;20068;-88
2021/12/27 00:39:05;;;;;;;28.05;17.25;;;;;;;2.24;98.55;100211.44;5032855;28;20060;-88
2021/12/27 00:41:30;;;;;;;33.55;18.67;;;;;;;2.24;98.55;100196.63;5031600;28;20073;-86
2021/12/27 00:43:56;;;;;;;25.33;15.93;;;;;;;2.24;98.69;100203.59;5032995;28;20103;-88
2021/12/27 00:46:21;;;;;;;31.80;17.95;;;;;;;2.24;97.80;100196.63;5031350;28;20041;-88
2021/12/27 00:48:47;;;;;;;32.35;18.17;;;;;;;2.25;98.57;100194.88;5032728;28;20032;-88
2021/12/27 00:51:12;;;;;;;27.25;17.58;;;;;;;2.25;98.73;100197.47;5031476;28;20041;-88
2021/12/27 00:53:38;;;;;;;24.77;15.85;;;;;;;2.26;98.70;100192.28;5014747;28;20036;-89
2021/12/27 00:56:04;;;;;;;25.48;17.27;;;;;;;2.25;98.88;100181.81;5032707;28;20372;-88
2021/12/27 00:58:30;;;;;;;28.58;17.10;;;;;;;2.26;98.57;100170.50;5032627;28;20392;-89
2021/12/27 01:00:55;;;;;;;24.80;16.23;;;;;;;2.29;98.94;100170.50;5032678;28;20034;-89
2021/12/27 01:03:21;;;;;;;33.00;19.13;;;;;;;2.30;98.66;100167.91;5032541;28;20447;-89
2021/12/27 01:05:47;;;;;;;28.92;17.80;;;;;;;2.33;98.95;100174.88;5032673;28;20018;-90
2021/12/27 01:08:13;;;;;;;27.00;17.02;;;;;;;2.31;98.98;100171.38;5014482;28;20033;-89
2021/12/27 01:18:35;;;;;;;26.30;16.00;;;;;;;2.38;99.44;100178.34;5052185;28;20059;-89
2021/12/27 01:21:01;;;;;;;24.52;16.92;;;;;;;2.39;98.94;100174.88;5050862;28;20413;-90
2021/12/27 01:23:28;;;;;;;27.77;17.75;;;;;;;2.39;99.55;100172.25;5050727;28;20029;-89
2021/12/27 01:25:53;;;;;;;26.23;17.17;;;;;;;2.40;99.46;100173.13;5050547;28;20043;-90
2021/12/27 01:28:19;;;;;;;27.45;17.08;;;;;;;2.39;99.67;100172.25;5051912;28;20123;-89
2021/12/27 01:30:48;;;;;;;27.10;16.17;;;;;;;2.40;99.04;100174.00;5034032;28;20028;-89
2021/12/27 01:33:18;;;;;;;26.40;17.52;;;;;;;2.43;99.44;100173.13;5051827;28;20116;-89
2021/12/27 01:35:44;;;;;;;25.42;16.35;;;;;;;2.44;99.89;100167.91;5034323;28;20045;-89
2021/12/27 01:38:12;;;;;;;25.73;16.23;;;;;;;2.47;99.71;100160.03;5051470;28;20136;-89
2021/12/27 01:40:38;;;;;;;25.58;16.60;;;;;;;2.48;99.84;100163.56;5051911;28;20082;-89
2021/12/27 01:43:06;;;;;;;21.13;14.48;;;;;;;2.48;99.07;100161.81;5050293;28;20044;-89
2021/12/27 01:45:32;;;;;;;27.30;17.00;;;;;;;2.49;99.01;100150.47;5052087;28;20103;-89
2021/12/27 01:47:58;;;;;;;23.85;15.93;;;;;;;2.49;99.26;100149.59;5051720;28;20029;-90
2021/12/27 01:50:24;;;;;;;25.00;15.95;;;;;;;2.51;99.60;100156.56;5050339;28;20048;-89
2021/12/27 01:52:50;;;;;;;24.25;15.65;;;;;;;2.52;99.68;100157.44;5017462;28;20041;-89
2021/12/27 01:55:16;;;;;;;24.52;15.55;;;;;;;2.54;99.51;100155.69;5051678;28;20091;-89
2021/12/27 01:57:42;;;;;;;23.42;15.98;;;;;;;2.55;99.48;100158.34;5050347;28;20029;-89
2021/12/27 02:00:08;;;;;;;22.77;15.15;;;;;;;2.55;99.23;100150.50;5051389;28;20530;-89
2021/12/27 02:02:36;;;;;;;22.50;14.85;;;;;;;2.58;99.30;100157.47;5050327;28;20028;-90
2021/12/27 02:05:02;;;;;;;22.95;15.40;;;;;;;2.58;99.97;100153.09;5049957;28;20040;-90
2021/12/27 02:07:28;;;;;;;23.02;15.15;;;;;;;2.61;99.21;100154.84;5051902;28;20360;-89
2021/12/27 02:10:02;;;;;;;23.35;15.13;;;;;;;2.60;99.55;100150.50;5051589;28;20341;-89
2021/12/27 02:12:30;;;;;;;25.17;16.38;;;;;;;2.58;99.59;100147.88;5034846;28;20456;-89
2021/12/27 02:14:56;;;;;;;25.13;16.70;;;;;;;2.61;99.51;100143.50;5050066;28;20083;-89
2021/12/27 02:17:24;;;;;;;24.40;15.45;;;;;;;2.61;99.37;100141.75;5049962;28;20049;-90
2021/12/27 02:19:51;;;;;;;26.42;16.00;;;;;;;2.64;99.34;100141.75;5050155;28;20037;-90
2021/12/27 02:22:18;;;;;;;26.52;16.20;;;;;;;2.65;99.88;100140.03;5033765;28;20036;-89
2021/12/27 02:24:43;;;;;;;27.45;17.88;;;;;;;2.66;100.00;100144.38;5050811;28;20078;-90
2021/12/27 02:27:13;;;;;;;22.73;14.70;;;;;;;2.66;100.00;100144.38;5049842;28;20021;-90
2021/12/27 02:29:39;;;;;;;26.57;17.27;;;;;;;2.69;99.68;100141.75;5051491;28;20041;-90
2021/12/27 02:32:06;;;;;;;21.92;15.60;;;;;;;2.70;99.68;100147.00;5049926;28;20044;-89
2021/12/27 02:34:31;;;;;;;23.48;15.00;;;;;;;2.69;99.87;100141.75;5049957;28;20388;-90
2021/12/27 02:36:57;;;;;;;24.13;14.65;;;;;;;2.70;100.00;100135.66;5051102;28;20029;-89
2021/12/27 02:39:24;;;;;;;24.40;15.40;;;;;;;2.69;99.39;100132.16;5051020;28;20453;-90
2021/12/27 02:41:49;;;;;;;26.38;15.85;;;;;;;2.73;99.26;100143.50;5049884;28;20044;-89
2021/12/27 02:44:15;;;;;;;26.40;16.58;;;;;;;2.69;99.78;100133.91;5032732;28;20064;-89
2021/12/27 02:46:41;;;;;;;27.27;16.55;;;;;;;2.72;99.88;100139.13;5029761;28;20037;-88
2021/12/27 02:49:06;;;;;;;25.00;15.60;;;;;;;2.76;100.00;100141.75;5031042;28;20056;-90
2021/12/27 02:51:32;;;;;;;26.30;16.20;;;;;;;2.74;99.81;100138.25;5031038;28;20049;-89
2021/12/27 02:53:57;;;;;;;26.30;16.08;;;;;;;2.73;100.00;100128.69;5013443;28;20113;-89
2021/12/27 02:56:23;;;;;;;25.42;16.05;;;;;;;2.75;100.00;100128.69;5029516;28;20331;-90
2021/12/27 02:58:50;;;;;;;22.90;15.45;;;;;;;2.76;99.85;100127.81;5029663;28;20034;-90
2021/12/27 03:01:19;;;;;;;26.25;17.15;;;;;;;2.76;100.00;100126.06;5013375;28;20381;-89
2021/12/27 03:03:45;;;;;;;24.55;15.25;;;;;;;2.77;99.98;100125.19;5030747;28;20115;-89
2021/12/27 03:06:11;;;;;;;26.95;14.75;;;;;;;2.77;100.00;100119.09;5030932;28;20099;-90
2021/12/27 03:08:39;;;;;;;26.00;15.73;;;;;;;2.77;100.00;100116.50;5030847;28;20473;-89
2021/12/27 03:11:05;;;;;;;26.98;15.93;;;;;;;2.78;100.00;100113.00;5030735;28;20437;-90
2021/12/27 03:13:34;;;;;;;26.85;15.57;;;;;;;2.79;100.00;100120.84;5029375;28;20068;-88
2021/12/27 03:16:01;;;;;;;22.35;14.70;;;;;;;2.80;99.68;100109.50;5029504;28;20334;-90
2021/12/27 03:18:27;;;;;;;23.25;14.50;;;;;;;2.80;100.00;100111.25;5012856;28;20036;-89
2021/12/27 03:20:54;;;;;;;21.20;13.68;;;;;;;2.81;100.00;100105.13;5029462;28;20049;-89
2021/12/27 03:23:20;;;;;;;24.15;15.60;;;;;;;2.78;100.00;100106.00;5029466;28;20523;-90
2021/12/27 03:25:46;;;;;;;27.67;16.08;;;;;;;2.83;100.00;100107.75;5029211;28;20106;-89
2021/12/27 03:28:12;;;;;;;23.92;15.80;;;;;;;2.85;100.00;100111.25;5029428;28;20021;-90
2021/12/27 03:30:39;;;;;;;25.40;16.27;;;;;;;2.85;99.87;100103.41;5029530;28;20045;-89
2021/12/27 03:33:06;;;;;;;25.10;16.77;;;;;;;2.85;100.00;100104.25;5030425;28;20029;-89
2021/12/27 03:35:36;;;;;;;21.92;14.90;;;;;;;2.87;100.00;100112.09;5029901;28;20451;-90
2021/12/27 03:38:08;;;;;;;27.50;16.75;;;;;;;2.89;100.00;100107.72;5032826;28;20138;-88
2021/12/27 03:40:34;;;;;;;25.40;15.48;;;;;;;2.90;100.00;100107.72;5033235;28;20049;-90
2021/12/27 03:43:00;;;;;;;27.13;16.88;;;;;;;2.90;100.00;100101.63;5039277;28;20024;-89
2021/12/27 03:45:29;;;;;;;25.90;15.65;;;;;;;2.93;100.00;100104.25;5052571;28;20580;-89
2021/12/27 03:47:56;;;;;;;26.50;16.52;;;;;;;2.92;100.00;100092.91;5052912;28;20044;-89
2021/12/27 03:50:24;;;;;;;24.80;16.70;;;;;;;2.94;100.00;100098.13;5036379;28;20408;-89
2021/12/27 03:52:50;;;;;;;25.55;17.23;;;;;;;2.94;100.00;100106.88;5049350;28;20029;-90
2021/12/27 03:55:16;;;;;;;25.88;16.83;;;;;;;2.95;100.00;100092.03;5043625;28;20037;-90
2021/12/27 03:57:50;;;;;;;23.00;14.98;;;;;;;2.92;100.00;100078.97;5040421;28;20124;-90
2021/12/27 04:02:43;;;;;;;26.73;16.90;;;;;;;2.99;100.00;100081.56;5040998;28;20448;-89
2021/12/27 04:05:09;;;;;;;25.67;16.17;;;;;;;3.01;100.00;100082.41;5046079;28;20104;-90
2021/12/27 04:07:40;;;;;;;27.40;17.48;;;;;;;3.01;100.00;100076.31;5020902;28;20132;-90
2021/12/27 04:10:07;;;;;;;;;;;;;;;3.05;100.00;100078.06;5042806;28;20048;-88
2021/12/27 04:12:32;;;;;;;27.05;14.35;;;;;;;3.04;100.00;100078.03;5033976;28;19913;-89
2021/12/27 04:14:58;;;;;;;24.08;15.20;;;;;;;3.05;100.00;100062.34;5048223;28;20060;-89
2021/12/27 04:17:24;;;;;;;27.05;17.08;;;;;;;3.08;100.00;100064.09;5043048;28;20025;-90
2021/12/27 04:19:49;;;;;;;31.25;16.90;;;;;;;3.06;100.00;100060.59;5039450;28;20457;-90
2021/12/27 04:22:15;;;;;;;28.75;16.40;;;;;;;3.09;100.00;100057.97;5045872;28;20117;-90
2021/12/27 04:24:40;;;;;;;25.73;16.33;;;;;;;3.10;100.00;100057.09;5026511;28;20116;-89
2021/12/27 04:27:06;;;;;;;26.33;16.23;;;;;;;3.10;100.00;100051.88;5043313;28;20112;-90
2021/12/27 04:29:31;;;;;;;26.52;16.25;;;;;;;3.10;100.00;100050.13;5024003;28;20486;-90
2021/12/27 04:31:57;;;;;;;26.27;16.65;;;;;;;3.11;100.00;100053.59;5041821;28;20028;-90
2021/12/27 04:34:22;;;;;;;26.63;16.33;;;;;;;3.13;100.00;100050.09;4993992;28;20052;-90
2021/12/27 04:36:48;;;;;;;22.35;15.25;;;;;;;3.13;100.00;100044.88;5035361;28;20044;-90
2021/12/27 04:39:13;;;;;;;23.80;14.90;;;;;;;3.14;100.00;100045.72;5025813;28;20116;-90
2021/12/27 04:41:39;;;;;;;25.25;16.40;;;;;;;3.16;100.00;100049.22;5040256;28;20037;-90
2021/12/27 04:44:05;;;;;;;22.95;15.27;;;;;;;3.15;100.00;100045.75;5043190;28;20140;-89
2021/12/27 04:46:30;;;;;;;26.42;15.75;;;;;;;3.19;100.00;100041.34;5043984;28;20442;-90
2021/12/27 04:48:56;;;;;;;24.02;15.85;;;;;;;3.21;100.00;100042.22;5037255;28;20026;-90
2021/12/27 04:51:22;;;;;;;26.10;17.00;;;;;;;3.22;100.00;100038.75;5023750;28;20045;-90
2021/12/27 04:53:49;;;;;;;25.00;16.85;;;;;;;3.23;100.00;100035.22;5053493;28;20060;-90
2021/12/27 04:56:17;;;;;;;24.63;15.57;;;;;;;3.21;100.00;100040.50;5053209;28;20128;-89
2021/12/27 04:58:46;;;;;;;24.17;15.38;;;;;;;3.25;100.00;100041.34;5029953;28;20029;-90
2021/12/27 05:01:13;;;;;;;22.25;15.25;;;;;;;3.21;100.00;100040.50;5032057;28;20075;-89
2021/12/27 05:03:39;;;;;;;21.90;14.80;;;;;;;3.22;100.00;100036.13;5022939;28;20037;-90
2021/12/27 05:06:05;;;;;;;22.98;14.38;;;;;;;3.24;100.00;100039.59;5051478;28;20435;-90
2021/12/27 05:08:31;;;;;;;21.98;14.65;;;;;;;3.25;100.00;100035.25;5031729;28;20072;-90
2021/12/27 05:10:58;;;;;;;26.42;14.93;;;;;;;3.25;100.00;100037.84;5031870;28;20030;-90
2021/12/27 05:13:24;;;;;;;25.92;16.20;;;;;;;3.26;100.00;100031.72;5031517;28;20041;-90
2021/12/27 05:15:50;;;;;;;25.08;16.40;;;;;;;3.30;100.00;100036.94;5032947;28;20091;-89
2021/12/27 05:18:19;;;;;;;21.25;14.57;;;;;;;3.31;100.00;100029.97;5034138;28;20052;-90
2021/12/27 05:20:45;;;;;;;22.15;15.38;;;;;;;3.30;100.00;100023.88;5031564;28;20028;-89
2021/12/27 05:23:10;;;;;;;22.00;14.52;;;;;;;3.31;100.00;100025.59;5010542;28;20119;-90
2021/12/27 05:25:36;;;;;;;23.00;15.05;;;;;;;3.33;100.00;100020.34;5051683;28;20388;-89
2021/12/27 05:28:01;;;;;;;24.95;15.50;;;;;;;3.32;100.00;100014.25;5034576;28;20079;-90
2021/12/27 05:30:27;;;;;;;27.75;15.57;;;;;;;3.34;100.00;100019.47;5018044;28;20104;-89
2021/12/27 05:32:52;;;;;;;25.00;15.23;;;;;;;3.36;100.00;100023.84;5034469;28;20393;-89
2021/12/27 05:35:18;;;;;;;23.67;15.05;;;;;;;3.35;100.00;100016.00;5034566;28;20025;-91
2021/12/27 05:37:45;;;;;;;24.50;15.80;;;;;;;3.37;100.00;100014.25;5052301;28;20029;-90
2021/12/27 05:40:20;;;;;;;23.77;15.63;;;;;;;3.37;100.00;100017.72;5017978;28;20400;-89
2021/12/27 05:42:45;;;;;;;24.73;16.08;;;;;;;3.39;100.00;100017.72;5052247;28;20479;-90
2021/12/27 05:45:11;;;;;;;21.63;15.02;;;;;;;3.38;100.00;100008.13;5052226;28;20024;-90
2021/12/27 05:47:37;;;;;;;26.60;15.85;;;;;;;3.41;100.00;100015.94;5034095;28;20082;-90
2021/12/27 05:50:07;;;;;;;26.02;15.85;;;;;;;3.43;100.00;100016.81;5052008;28;20041;-89
2021/12/27 05:52:33;;;;;;;25.27;15.07;;;;;;;3.44;100.00;100016.81;5034153;28;20033;-90
2021/12/27 05:54:59;;;;;;;22.60;15.60;;;;;;;3.47;100.00;100015.91;5050526;28;20338;-89
2021/12/27 05:57:24;;;;;;;21.98;14.68;;;;;;;3.49;100.00;100016.78;5050495;28;20125;-88
2021/12/27 05:59:50;;;;;;;24.02;16.08;;;;;;;3.51;100.00;100016.75;5051037;28;20063;-90
2021/12/27 06:02:15;;;;;;;24.42;14.70;;;;;;;3.53;100.00;100018.47;5033905;28;20041;-90
2021/12/27 06:04:41;;;;;;;22.27;15.32;;;;;;;3.56;100.00;100023.72;5050571;28;20059;-89
2021/12/27 06:07:06;;;;;;;26.42;15.65;;;;;;;3.55;100.00;100024.59;5033793;28;20025;-89
2021/12/27 06:09:32;;;;;;;21.88;14.75;;;;;;;3.57;100.00;100021.97;5017587;28;20064;-89
2021/12/27 06:11:57;;;;;;;21.15;14.20;;;;;;;3.57;100.00;100020.22;5050135;28;20041;-89
2021/12/27 06:14:22;;;;;;;23.98;16.63;;;;;;;3.59;100.00;100014.97;5026555;28;20049;-90
2021/12/27 06:16:48;;;;;;;21.70;15.05;;;;;;;3.62;100.00;100018.44;5030320;28;20140;-89
2021/12/27 06:19:13;;;;;;;25.15;14.65;;;;;;;3.64;100.00;100021.91;5014046;28;20033;-89
2021/12/27 06:21:39;;;;;;;22.33;15.05;;;;;;;3.65;100.00;100018.41;5014226;28;20108;-90
2021/12/27 06:24:05;;;;;;;24.42;15.45;;;;;;;3.66;100.00;100009.69;5013707;28;20132;-90
2021/12/27 06:26:30;;;;;;;24.33;15.13;;;;;;;3.70;100.00;100013.13;5013824;28;20028;-89
2021/12/27 06:28:56;;;;;;;19.80;13.65;;;;;;;3.72;100.00;100021.84;5030197;28;20090;-90
2021/12/27 06:31:22;;;;;;;22.33;15.15;;;;;;;3.76;100.00;100025.31;5030145;28;20041;-89
2021/12/27 06:33:47;;;;;;;23.88;15.50;;;;;;;3.77;100.00;100016.59;5030020;28;20038;-89
2021/12/27 06:36:14;;;;;;;22.75;14.38;;;;;;;3.78;100.00;100010.47;5013216;28;20040;-90
2021/12/27 06:38:39;;;;;;;24.23;15.98;;;;;;;3.80;100.00;100011.31;5013850;28;20152;-90
2021/12/27 06:41:05;;;;;;;21.08;14.25;;;;;;;3.80;100.00;100008.72;5031321;28;20145;-89
2021/12/27 06:43:31;;;;;;;23.48;13.88;;;;;;;3.84;100.00;100011.28;5013627;28;20487;-89
2021/12/27 06:45:58;;;;;;;22.73;15.52;;;;;;;3.85;100.00;100001.69;5014225;28;20070;-90
2021/12/27 06:48:23;;;;;;;21.35;14.38;;;;;;;3.87;100.00;100011.25;5030217;28;20116;-89
2021/12/27 06:50:49;;;;;;;24.35;15.85;;;;;;;3.88;100.00;100001.66;5013928;28;20065;-90
2021/12/27 06:53:15;;;;;;;21.35;14.60;;;;;;;3.88;100.00;100004.28;4997403;28;20040;-90
2021/12/27 06:55:45;;;;;;;24.23;16.25;;;;;;;3.90;100.00;99993.78;5014009;28;20037;-89
2021/12/27 06:58:11;;;;;;;23.90;15.27;;;;;;;3.90;100.00;99986.78;5029753;28;20442;-89
2021/12/27 07:00:37;;;;;;;23.70;15.70;;;;;;;3.94;100.00;99992.91;5030623;28;20029;-90
2021/12/27 07:03:02;;;;;;;28.35;15.90;;;;;;;3.96;100.00;99988.53;5029896;28;20037;-89
2021/12/27 07:05:28;;;;;;;21.27;14.38;;;;;;;3.98;100.00;99995.47;5030811;28;20429;-90
2021/12/27 07:07:53;;;;;;;24.02;15.02;;;;;;;4.00;100.00;99984.97;5013547;28;20461;-89
2021/12/27 07:10:19;;;;;;;22.48;15.13;;;;;;;4.00;100.00;99987.59;5031711;28;20174;-89
2021/12/27 07:12:45;;;;;;;25.63;15.88;;;;;;;4.02;100.00;99983.22;5034179;28;20057;-89
2021/12/27 07:15:10;;;;;;;21.00;14.10;;;;;;;4.03;100.00;99980.59;5033863;28;20347;-90
2021/12/27 07:17:36;;;;;;;22.95;15.00;;;;;;;4.04;100.00;99978.81;5001240;28;20057;-90
2021/12/27 07:20:03;;;;;;;23.88;15.60;;;;;;;4.05;100.00;99973.56;5033512;28;20087;-90
2021/12/27 07:22:28;;;;;;;22.73;14.38;;;;;;;4.05;100.00;99973.56;5033812;28;20480;-90
2021/12/27 07:24:54;;;;;;;24.98;14.93;;;;;;;4.07;100.00;99965.69;5035073;28;20056;-90
2021/12/27 07:27:19;;;;;;;23.95;13.93;;;;;;;4.07;100.00;99966.56;5016868;28;20091;-90
2021/12/27 07:29:45;;;;;;;21.52;15.25;;;;;;;4.11;100.00;99966.56;5034764;28;20061;-90
2021/12/27 07:32:11;;;;;;;26.65;15.35;;;;;;;4.11;100.00;99967.41;5017115;28;20493;-90
2021/12/27 07:34:36;;;;;;;21.17;14.85;;;;;;;4.09;100.00;99967.41;5033554;28;20056;-90
2021/12/27 07:37:02;;;;;;;25.73;14.27;;;;;;;4.11;100.00;99962.16;5033343;28;20037;-89
2021/12/27 07:39:28;;;;;;;27.63;15.63;;;;;;;4.12;100.00;99958.66;5033462;28;20115;-90
2021/12/27 07:41:54;;;;;;;22.85;14.65;;;;;;;4.15;100.00;99960.38;5034722;28;20148;-90
2021/12/27 07:44:20;;;;;;;24.63;14.88;;;;;;;4.16;100.00;99962.13;5032825;28;20108;-90
2021/12/27 07:46:46;;;;;;;24.75;15.15;;;;;;;4.14;100.00;99961.28;5016252;28;20181;-91
2021/12/27 07:49:16;;;;;;;22.67;13.70;;;;;;;4.16;100.00;99968.22;5032427;28;20061;-90
2021/12/27 07:51:42;;;;;;;24.40;14.55;;;;;;;4.15;100.00;99966.47;5032981;28;20103;-90
2021/12/27 07:54:08;;;;;;;25.05;14.65;;;;;;;4.15;100.00;99968.25;5017088;28;20025;-91
2021/12/27 07:56:33;;;;;;;22.08;13.68;;;;;;;4.17;100.00;99975.19;5016701;28;20038;-91
2021/12/27 07:59:04;;;;;;;23.88;14.25;;;;;;;4.16;100.00;99965.63;5000302;28;20127;-90
2021/12/27 08:01:31;;;;;;;21.90;13.95;;;;;;;4.19;100.00;99964.72;5017087;28;20069;-90
2021/12/27 08:03:57;;;;;;;24.80;13.93;;;;;;;4.19;100.00;99980.44;5016360;28;20034;-90
2021/12/27 08:06:22;;;;;;;26.65;14.65;;;;;;;4.18;100.00;99979.56;5016249;28;20087;-90
2021/12/27 08:08:47;;;;;;;26.83;13.52;;;;;;;4.17;100.00;99982.19;5032780;28;20041;-90
2021/12/27 08:11:13;;;;;;;24.42;14.45;;;;;;;4.19;100.00;99978.69;5016315;28;20106;-89
2021/12/27 08:13:42;;;;;;;25.52;14.00;;;;;;;4.23;100.00;99975.16;5033489;28;20037;-91
2021/12/27 08:16:08;;;;;;;20.85;13.80;;;;;;;4.22;100.00;99978.63;5053420;28;20049;-91
2021/12/27 08:18:34;;;;;;;26.00;15.30;;;;;;;4.24;100.00;99974.25;5002723;28;20043;-91
2021/12/27 08:20:59;;;;;;;23.60;15.02;;;;;;;4.26;100.00;99979.50;5052077;28;20322;-90
2021/12/27 08:23:25;;;;;;;23.25;15.32;;;;;;;4.24;100.00;99983.88;5034474;28;20122;-90
2021/12/27 08:25:50;;;;;;;21.52;14.02;;;;;;;4.28;100.00;99978.59;5035495;28;20028;-90
2021/12/27 08:28:16;;;;;;;21.85;14.40;;;;;;;4.32;100.00;99988.16;5034880;28;20122;-90
2021/12/27 08:30:41;;;;;;;22.25;14.30;;;;;;;4.35;100.00;99986.38;5052006;28;20021;-90
2021/12/27 08:33:07;;;;;;;19.98;13.05;;;;;;;4.34;100.00;99989.91;5018927;28;20044;-90
2021/12/27 08:35:32;;;;;;;21.83;13.68;;;;;;;4.36;100.00;99982.91;5035644;28;20155;-90
2021/12/27 08:37:58;;;;;;;21.40;13.85;;;;;;;4.38;100.00;99974.13;5035777;28;20071;-90
2021/12/27 08:40:23;;;;;;;20.25;13.68;;;;;;;4.37;100.00;99982.00;5035997;28;20123;-90
2021/12/27 08:42:49;;;;;;;20.15;12.95;;;;;;;4.37;100.00;99974.13;5052164;28;20437;-90
2021/12/27 08:45:14;;;;;;;22.83;13.95;;;;;;;4.43;100.00;99971.47;5035810;28;20048;-90
2021/12/27 08:47:41;;;;;;;21.05;13.75;;;;;;;4.45;100.00;99967.94;5035505;28;20045;-90
2021/12/27 08:50:08;;;;;;;19.70;12.88;;;;;;;4.46;100.00;99960.94;5052059;28;20029;-90
2021/12/27 08:52:34;;;;;;;18.02;12.52;;;;;;;4.48;100.00;99959.16;5052048;28;20365;-90
2021/12/27 08:55:03;;;;;;;24.27;13.98;;;;;;;4.51;100.00;99960.00;5053190;28;20033;-91
2021/12/27 08:57:31;;;;;;;18.80;13.05;;;;;;;4.53;100.00;99952.97;5035916;28;20039;-91
2021/12/27 08:59:57;;;;;;;19.10;13.15;;;;;;;4.56;100.00;99940.72;5018778;28;20465;-90
2021/12/27 09:02:22;;;;;;;21.10;13.07;;;;;;;4.57;100.00;99939.81;5035240;28;20037;-91
2021/12/27 09:04:48;;;;;;;18.85;12.25;;;;;;;4.56;100.00;99936.34;5051889;28;20079;-91
2021/12/27 09:07:15;;;;;;;21.23;11.98;;;;;;;4.55;100.00;99931.09;5018763;28;20066;-90
2021/12/27 09:09:43;;;;;;;17.65;11.20;;;;;;;4.55;100.00;99924.13;5018991;28;20040;-91
2021/12/27 09:12:09;;;;;;;19.65;12.82;;;;;;;4.57;100.00;99921.47;5034736;28;20041;-91
2021/12/27 09:14:35;;;;;;;17.10;11.95;;;;;;;4.60;100.00;99927.56;5042673;28;20473;-90
2021/12/27 09:17:00;;;;;;;20.95;13.85;;;;;;;4.61;100.00;99921.44;5031336;28;20152;-91
2021/12/27 09:19:26;;;;;;;20.48;13.40;;;;;;;4.64;100.00;99924.00;4998978;28;20025;-88
2021/12/27 09:21:52;;;;;;;20.77;13.15;;;;;;;4.63;100.00;99922.28;5031857;28;20076;-90
2021/12/27 09:24:19;;;;;;;18.70;12.63;;;;;;;4.65;100.00;99933.63;4983049;28;20022;-91
2021/12/27 09:26:45;;;;;;;17.42;11.55;;;;;;;4.62;100.00;99946.75;4998655;28;20033;-91
2021/12/27 09:29:11;;;;;;;20.25;12.00;;;;;;;4.59;100.00;99954.66;5032735;28;20100;-91
2021/12/27 09:31:37;;;;;;;19.42;12.88;;;;;;;4.55;100.00;99949.47;5014837;28;20369;-91
2021/12/27 09:34:03;;;;;;;23.20;12.98;;;;;;;4.54;100.00;99959.09;5014610;28;20029;-91
2021/12/27 09:36:28;;;;;;;18.73;12.63;;;;;;;4.54;100.00;99956.47;5031255;28;20029;-91
2021/12/27 09:38:55;;;;;;;20.02;12.95;;;;;;;4.55;100.00;99954.69;4998716;28;20115;-90
2021/12/27 09:41:22;;;;;;;18.67;13.13;;;;;;;4.55;100.00;99949.47;5014937;28;20041;-90
2021/12/27 09:43:48;;;;;;;20.85;12.30;;;;;;;4.58;100.00;99950.31;5027794;28;20055;-91
2021/12/27 09:46:13;;;;;;;22.42;12.88;;;;;;;4.62;100.00;99938.88;5034509;28;20402;-91
2021/12/27 09:48:40;;;;;;;15.57;11.65;;;;;;;4.70;100.00;99938.81;5034542;28;20032;-91
2021/12/27 09:51:06;;;;;;;21.13;12.18;;;;;;;4.77;100.00;99937.81;5051180;28;20047;-92
2021/12/27 09:53:32;;;;;;;17.15;12.25;;;;;;;4.80;100.00;99939.53;5034476;28;20060;-91
2021/12/27 09:55:58;;;;;;;18.08;12.20;;;;;;;4.84;100.00;99925.50;5017966;28;20417;-91
2021/12/27 09:58:24;;;;;;;19.27;11.98;;;;;;;4.88;100.00;99924.59;5051001;28;20045;-91
2021/12/27 10:00:49;;;;;;;19.88;12.25;;;;;;;4.89;100.00;99926.31;5034439;28;20031;-90
2021/12/27 10:03:15;;;;;;;18.27;12.02;;;;;;;4.86;100.00;99919.34;5017936;28;20033;-90
2021/12/27 10:05:41;;;;;;;19.10;12.07;;;;;;;4.91;100.00;99922.78;5051023;28;20065;-90
2021/12/27 10:08:06;;;;;;;17.08;12.02;;;;;;;4.92;100.00;99923.63;5034367;28;20468;-91
2021/12/27 10:10:34;;;;;;;19.85;12.73;;;;;;;4.92;100.00;99919.28;5033617;28;20095;-90
2021/12/27 10:13:10;;;;;;;16.35;11.63;;;;;;;4.90;100.00;99909.69;5034157;28;20028;-90
2021/12/27 10:15:38;;;;;;;18.73;13.30;;;;;;;4.92;100.00;99902.66;5017170;28;20409;-90
2021/12/27 10:18:12;;;;;;;24.00;17.08;;;;;;;4.88;99.94;99880.84;5014230;28;20022;-91
2021/12/27 10:20:38;;;;;;;21.67;14.23;;;;;;;4.92;99.90;99876.41;5030752;28;20041;-90
2021/12/27 10:23:03;;;;;;;26.88;16.02;;;;;;;4.93;99.92;99876.41;5014471;28;20064;-91
2021/12/27 10:25:29;;;;;;;24.10;16.25;;;;;;;4.93;99.56;99868.53;5031028;28;20057;-91
2021/12/27 10:27:57;;;;;;;22.52;14.60;;;;;;;4.96;99.33;99878.13;5014545;28;20103;-90
2021/12/27 10:30:30;;;;;;;22.48;14.80;;;;;;;4.91;99.07;99878.19;5032144;28;20075;-90
2021/12/27 10:33:19;;;;;;;23.73;15.65;;;;;;;4.91;99.02;99880.81;5030595;28;20052;-90
2021/12/27 10:35:47;;;;;;;22.75;15.23;;;;;;;4.89;98.64;99895.69;5031870;28;20481;-91
2021/12/27 10:38:20;;;;;;;23.55;14.35;;;;;;;4.87;98.87;99896.59;5030571;28;20030;-90
2021/12/27 10:40:51;;;;;;;22.30;15.70;;;;;;;4.83;98.80;99890.53;5030221;28;20076;-90
2021/12/27 10:43:18;;;;;;;24.80;15.23;;;;;;;4.84;98.76;99880.91;5014072;28;20099;-89
2021/12/27 10:45:47;;;;;;;22.80;15.80;;;;;;;4.89;99.46;99890.44;5013357;28;20029;-90
2021/12/27 10:48:21;;;;;;;22.20;15.30;;;;;;;4.93;99.45;99884.28;5032202;28;20034;-90
2021/12/27 10:50:48;;;;;;;18.33;12.98;;;;;;;4.98;99.13;99886.84;5013778;28;20532;-91
2021/12/27 10:53:15;;;;;;;22.52;14.93;;;;;;;5.06;99.82;99878.84;5030157;28;20025;-90
2021/12/27 10:55:47;;;;;;;19.23;13.23;;;;;;;5.13;99.48;99881.34;5014217;28;20037;-90
2021/12/27 10:58:25;;;;;;;18.45;12.93;;;;;;;5.19;99.53;99877.75;5030152;28;20041;-90
2021/12/27 11:01:01;;;;;;;22.17;13.30;;;;;;;5.25;99.65;99877.69;5030386;28;20497;-90
2021/12/27 11:03:43;;;;;;;19.75;13.18;;;;;;;5.29;99.64;99875.88;5013940;28;20048;-90
2021/12/27 11:06:11;;;;;;;18.75;13.07;;;;;;;5.31;98.89;99871.47;5030290;28;20681;-90
2021/12/27 11:08:45;;;;;;;17.67;12.15;;;;;;;5.43;99.22;99867.78;5013728;28;20033;-91
2021/12/27 11:11:16;;;;;;;19.40;13.30;;;;;;;5.52;99.55;99857.13;5013543;28;20029;-90
2021/12/27 11:13:43;;;;;;;18.67;12.23;;;;;;;5.60;99.44;99865.75;5030032;28;20057;-91
2021/12/27 11:16:10;;;;;;;16.73;12.20;;;;;;;5.64;98.61;99862.19;5013546;28;20029;-90
2021/12/27 11:18:36;;;;;;;21.15;12.15;;;;;;;5.69;98.56;99856.84;5031344;28;20115;-90
2021/12/27 11:21:17;;;;;;;19.40;10.35;;;;;;;5.73;98.25;99863.75;5030100;28;20485;-90